Andrews Bridge, Pennsylvania
Current Conditions -  °F | °C
As of 12:35 AM on Friday 31 Oct 2014 (Local Time) from KMQS Reporting Station
Broken Clouds Broken Clouds  
Wind Chill: 41°   Ceiling: 4800
Heat Index: 41°   Visibility: 10mi
Dew Point: 36°   Wind: 0mph
Humidity: 81%   Direction: NA
Pressure: 30.03"   Gusts: NA
Location:  39.9118°N, 76.0265°W
Report Text: KMQS 310435Z AUTO 00000KT 10SM BKN048 05/02 A3003 RMK AO2
Loading
Personal Weather Stations






























Interactive Weather Map
Tropical Storm Tracking
New forecast layout! Learn more

10-Day Weather Forecast

Advertisements
Track Severe Weather on mobile